Bridgewater, Michigan
Current Conditions -  °F | °C
As of 12:53 PM on Friday 24 Oct 2014 (Local Time) from KARB Reporting Station
Overcast Overcast  
Wind Chill: 59°   Ceiling: 3900
Heat Index: 59°   Visibility: 10mi
Dew Point: 42°   Wind: 9mph
Humidity: 53%   Direction: 260°W
Pressure: 30.05"   Gusts: NA
Location:  42.16°N, 83.9°W
Report Text: KARB 241653Z 26008KT 10SM OVC039 15/06 A3005 RMK AO2 SLP179 T01500056
Loading
Personal Weather Stations






























Interactive Weather Map
Tropical Storm Tracking
New forecast layout! Learn more

10-Day Weather Forecast

Advertisements
Track Severe Weather on mobile